Terminal Aerodrome Forecast
Issued by NWS

Home | Current Version | Previous Version | Text Only | Print | Product List | Glossary On
Versions: 1 2 3 4 5 6 7 8 9 10 11 12 13 14 15 16 17 18 19 20 21 22 23 24 25 26 27 28 29 30 31
000
FTUS45 KBOU 250535
TAFAPA
TAF
KAPA 250535Z 2506/2606 15008KT P6SM FEW120 SCT220
     FM250900 18008KT P6SM FEW120 SCT220
     FM251600 23010KT P6SM FEW120 SCT220
     FM251800 28012G22KT P6SM FEW100 BKN220
     FM252300 24011KT P6SM FEW120 BKN220
     FM260200 18007KT P6SM FEW120 SCT220=

USA.gov is the U.S. government's official web portal to all federal, state and local government web resources and services.